Time;durP1;ratioP1;P1;durP2;ratioP2;P2;SDS_P1;SDS_P2;PMS_P1;PMS_P2;Temp;Humidity;BMP_temperature;BMP_pressure;BME280_temperature;BME280_humidity;BME280_pressure;Samples;Min_cycle;Max_cycle;Signal;HPM_P1;HPM_P2
2022/03/14 00:01:07;;;;;;;1.48;1.20;;;10.60;99.90;;;;;;5032636;28;20440;-84
2022/03/14 00:03:41;;;;;;;1.17;1.02;;;10.70;99.90;;;;;;5033688;28;20116;-83
2022/03/14 00:06:10;;;;;;;2.90;1.33;;;10.30;99.90;;;;;;5032691;28;20401;-83
2022/03/14 00:08:36;;;;;;;1.15;1.05;;;10.40;99.90;;;;;;5032571;28;20398;-84
2022/03/14 00:11:02;;;;;;;1.35;1.25;;;10.40;99.90;;;;;;5032516;28;20541;-84
2022/03/14 00:13:28;;;;;;;1.40;1.30;;;10.70;99.90;;;;;;5032692;28;20048;-83
2022/03/14 00:15:55;;;;;;;1.48;1.38;;;10.40;99.90;;;;;;5033189;28;20366;-83
2022/03/14 00:18:21;;;;;;;1.30;1.20;;;10.50;99.90;;;;;;5032281;28;20037;-83
2022/03/14 00:20:46;;;;;;;1.58;1.40;;;10.70;99.90;;;;;;5032339;28;20028;-83
2022/03/14 00:23:12;;;;;;;1.60;1.50;;;10.70;99.90;;;;;;5032196;28;20053;-84
2022/03/14 00:25:38;;;;;;;1.50;1.40;;;10.60;99.90;;;;;;5033397;28;20056;-83
2022/03/14 00:28:04;;;;;;;1.80;1.60;;;10.80;99.90;;;;;;5031817;28;20034;-83
2022/03/14 00:30:30;;;;;;;2.53;1.60;;;10.70;99.90;;;;;;5032130;28;20032;-83
2022/03/14 00:32:56;;;;;;;1.77;1.67;;;10.80;99.90;;;;;;5031997;28;20033;-83
2022/03/14 00:35:22;;;;;;;1.70;1.60;;;10.80;99.90;;;;;;5032048;28;20032;-84
2022/03/14 00:37:48;;;;;;;1.52;1.42;;;11.10;99.90;;;;;;5032848;28;20485;-84
2022/03/14 00:40:14;;;;;;;2.33;1.77;;;10.70;99.90;;;;;;5015532;28;20026;-83
2022/03/14 00:42:40;;;;;;;2.78;2.58;;;11.10;99.90;;;;;;5031515;28;20030;-84
2022/03/14 00:45:06;;;;;;;3.63;3.30;;;11.00;99.90;;;;;;5032325;28;20048;-83
2022/03/14 00:47:32;;;;;;;3.20;2.88;;;11.00;99.90;;;;;;5031901;28;20108;-84
2022/03/14 00:49:58;;;;;;;3.42;3.00;;;11.10;99.90;;;;;;5031945;28;20049;-84
2022/03/14 00:52:23;;;;;;;3.10;2.60;;;11.10;99.90;;;;;;5032480;28;20555;-84
2022/03/14 00:54:49;;;;;;;3.75;3.22;;;11.10;99.90;;;;;;5031564;28;20059;-84
2022/03/14 00:57:15;;;;;;;2.90;2.60;;;11.20;99.90;;;;;;5030710;28;20486;-84
2022/03/14 00:59:41;;;;;;;2.78;2.50;;;11.30;99.90;;;;;;5031238;28;20390;-84
2022/03/14 01:02:09;;;;;;;2.80;2.60;;;11.10;99.90;;;;;;5031740;28;20025;-83
2022/03/14 01:04:35;;;;;;;3.63;2.60;;;11.40;99.90;;;;;;5032524;28;20124;-84
2022/03/14 01:07:02;;;;;;;2.85;2.60;;;11.10;99.90;;;;;;5031389;28;20100;-84
2022/03/14 01:09:29;;;;;;;2.30;2.10;;;11.10;99.90;;;;;;5031586;28;20021;-84
2022/03/14 01:11:54;;;;;;;3.90;2.40;;;11.60;99.90;;;;;;5031048;28;20060;-84
2022/03/14 01:14:22;;;;;;;2.63;2.42;;;11.00;99.90;;;;;;5031629;28;20478;-84
2022/03/14 01:16:48;;;;;;;3.45;2.83;;;11.00;99.90;;;;;;5031416;28;20024;-84
2022/03/14 01:19:14;;;;;;;3.97;2.95;;;11.00;99.90;;;;;;5031525;28;20112;-84
2022/03/14 01:21:39;;;;;;;3.42;2.80;;;11.40;99.90;;;;;;5031773;28;20477;-84
2022/03/14 01:24:05;;;;;;;3.47;2.90;;;11.00;99.90;;;;;;5031011;28;20049;-84
2022/03/14 01:26:34;;;;;;;3.35;2.90;;;11.00;99.90;;;;;;5031080;28;20101;-84
2022/03/14 01:29:00;;;;;;;3.72;2.92;;;11.00;99.90;;;;;;5030957;28;20037;-84
2022/03/14 01:31:26;;;;;;;3.33;3.00;;;11.00;99.90;;;;;;5032013;28;20075;-84
2022/03/14 01:33:52;;;;;;;3.15;2.85;;;11.20;99.90;;;;;;5030681;28;20034;-84
2022/03/14 01:36:18;;;;;;;4.32;2.90;;;10.90;99.90;;;;;;5031321;28;20057;-84
2022/03/14 01:38:44;;;;;;;2.60;2.40;;;11.10;99.90;;;;;;5030864;28;20024;-84
2022/03/14 01:41:10;;;;;;;3.47;3.17;;;10.80;99.90;;;;;;5031044;28;20021;-84
2022/03/14 01:43:36;;;;;;;3.30;3.00;;;11.10;99.90;;;;;;5032076;28;20470;-84
2022/03/14 01:46:02;;;;;;;3.45;3.15;;;10.80;99.90;;;;;;5030935;28;20028;-83
2022/03/14 01:48:28;;;;;;;4.53;3.38;;;10.80;99.90;;;;;;5031436;28;20108;-84
2022/03/14 01:50:54;;;;;;;3.95;3.33;;;10.80;99.90;;;;;;5030417;28;20075;-84
2022/03/14 01:53:21;;;;;;;4.05;3.50;;;11.40;99.90;;;;;;5030493;28;20041;-84
2022/03/14 01:55:50;;;;;;;3.90;3.50;;;10.90;99.90;;;;;;5031771;28;20436;-84
2022/03/14 01:58:17;;;;;;;3.38;3.08;;;10.90;99.90;;;;;;5030871;28;20516;-84
2022/03/14 02:00:44;;;;;;;3.75;3.10;;;10.90;99.90;;;;;;5030796;28;20017;-84
2022/03/14 02:03:10;;;;;;;4.45;3.00;;;10.80;99.90;;;;;;5031283;28;20034;-84
2022/03/14 02:05:37;;;;;;;3.50;3.20;;;10.80;99.90;;;;;;5032595;28;20104;-84
2022/03/14 02:08:06;;;;;;;6.15;3.60;;;10.90;99.90;;;;;;5034701;28;20041;-84
2022/03/14 02:10:34;;;;;;;3.50;3.20;;;11.40;99.90;;;;;;5035101;28;20101;-83
2022/03/14 02:13:04;;;;;;;4.00;3.40;;;11.00;99.90;;;;;;5034975;28;20037;-83
2022/03/14 02:15:30;;;;;;;6.50;3.50;;;10.90;99.90;;;;;;5035167;28;20026;-84
2022/03/14 02:17:56;;;;;;;3.58;3.28;;;10.90;99.90;;;;;;5034521;28;20092;-84
2022/03/14 02:20:21;;;;;;;3.65;3.25;;;10.80;99.90;;;;;;5034661;28;20466;-84
2022/03/14 02:22:47;;;;;;;4.28;3.65;;;10.80;99.90;;;;;;5034681;28;20045;-84
2022/03/14 02:25:12;;;;;;;3.83;3.15;;;10.90;99.90;;;;;;5034628;28;20038;-84
2022/03/14 02:27:38;;;;;;;3.40;2.95;;;10.80;99.90;;;;;;5034563;28;20132;-84
2022/03/14 02:30:05;;;;;;;3.40;3.10;;;10.90;99.90;;;;;;5034581;28;20052;-83
2022/03/14 02:32:30;;;;;;;3.83;3.45;;;10.80;99.90;;;;;;5034626;28;20033;-84
2022/03/14 02:34:56;;;;;;;3.65;3.33;;;10.70;99.90;;;;;;5034414;28;20038;-83
2022/03/14 02:37:22;;;;;;;6.45;4.13;;;10.50;99.90;;;;;;5034603;28;20026;-84
2022/03/14 02:39:49;;;;;;;4.18;3.70;;;10.50;99.90;;;;;;5034302;28;20516;-84
2022/03/14 02:42:14;;;;;;;5.45;3.70;;;10.40;99.90;;;;;;5034551;28;20037;-84
2022/03/14 02:44:41;;;;;;;4.80;3.80;;;10.40;99.90;;;;;;5033963;28;20029;-84
2022/03/14 02:47:08;;;;;;;5.45;3.67;;;10.50;99.90;;;;;;5034258;28;20129;-84
2022/03/14 02:49:34;;;;;;;4.82;3.28;;;10.40;99.90;;;;;;5034855;28;20049;-84
2022/03/14 02:52:00;;;;;;;3.70;3.40;;;10.40;99.90;;;;;;5033905;28;20068;-84
2022/03/14 02:54:26;;;;;;;4.72;3.67;;;10.80;99.90;;;;;;5034060;28;20034;-83
2022/03/14 02:56:52;;;;;;;3.70;3.40;;;10.30;99.90;;;;;;5033935;28;20088;-84
2022/03/14 02:59:18;;;;;;;4.20;3.80;;;10.20;99.90;;;;;;5033872;28;20028;-84
2022/03/14 03:01:44;;;;;;;4.15;3.75;;;10.20;99.90;;;;;;5034515;28;20022;-83
2022/03/14 03:04:10;;;;;;;4.50;3.75;;;10.60;99.90;;;;;;5034099;28;20037;-84
2022/03/14 03:06:35;;;;;;;3.78;3.38;;;10.40;99.90;;;;;;5017021;28;20455;-84
2022/03/14 03:09:03;;;;;;;4.68;3.38;;;10.10;99.90;;;;;;5033812;28;20116;-84
2022/03/14 03:11:30;;;;;;;3.95;3.15;;;10.20;99.90;;;;;;5033495;28;20552;-83
2022/03/14 03:13:56;;;;;;;4.10;3.35;;;9.90;99.90;;;;;;5034633;28;20403;-83
2022/03/14 03:16:22;;;;;;;3.55;3.25;;;10.10;99.90;;;;;;5033018;28;20026;-84
2022/03/14 03:18:48;;;;;;;3.83;3.42;;;10.20;99.90;;;;;;5033308;28;20013;-84
2022/03/14 03:21:16;;;;;;;3.50;3.20;;;10.00;99.90;;;;;;5033162;28;20033;-84
2022/03/14 03:23:42;;;;;;;2.97;2.55;;;9.80;99.90;;;;;;5033354;28;20498;-84
2022/03/14 03:26:08;;;;;;;3.80;2.70;;;9.80;99.90;;;;;;5033826;28;20128;-83
2022/03/14 03:28:37;;;;;;;2.50;2.30;;;10.10;99.90;;;;;;5033909;28;20029;-84
2022/03/14 03:31:07;;;;;;;2.38;2.17;;;9.80;99.90;;;;;;5033556;28;20375;-84
2022/03/14 03:33:33;;;;;;;2.42;2.22;;;9.90;99.90;;;;;;5033540;28;20045;-84
2022/03/14 03:35:59;;;;;;;2.83;2.45;;;9.80;99.90;;;;;;5033010;28;20464;-84
2022/03/14 03:38:25;;;;;;;2.88;2.47;;;9.80;99.90;;;;;;5033229;28;20160;-83
2022/03/14 03:40:50;;;;;;;3.58;2.60;;;9.80;99.90;;;;;;5033444;28;20017;-83
2022/03/14 03:43:16;;;;;;;4.00;2.58;;;9.70;99.90;;;;;;5032615;28;20033;-84
2022/03/14 03:45:42;;;;;;;2.33;2.13;;;9.70;99.90;;;;;;5032999;28;20405;-84
2022/03/14 03:48:07;;;;;;;2.97;2.50;;;9.60;99.90;;;;;;5032768;28;20091;-84
2022/03/14 03:50:33;;;;;;;3.45;2.30;;;9.90;99.90;;;;;;5032861;28;20028;-84
2022/03/14 03:52:58;;;;;;;2.83;2.40;;;9.50;99.90;;;;;;5032824;28;20547;-84
2022/03/14 03:55:24;;;;;;;4.38;2.30;;;10.00;99.90;;;;;;5033759;28;20017;-84
2022/03/14 03:57:50;;;;;;;3.28;2.38;;;9.50;99.90;;;;;;5032695;28;20037;-84
2022/03/14 04:00:16;;;;;;;3.53;2.25;;;9.90;99.90;;;;;;5032543;28;20024;-84
2022/03/14 04:02:44;;;;;;;2.47;2.28;;;9.50;99.90;;;;;;5033021;28;20134;-84
2022/03/14 04:05:11;;;;;;;3.05;2.75;;;9.50;99.90;;;;;;5032479;28;20021;-84
2022/03/14 04:07:38;;;;;;;2.85;2.45;;;10.00;99.90;;;;;;5033230;28;20102;-83
2022/03/14 04:10:04;;;;;;;3.13;2.60;;;9.50;99.90;;;;;;5032765;28;20414;-83
2022/03/14 04:12:30;;;;;;;2.60;2.33;;;9.50;99.90;;;;;;5032913;28;20037;-83
2022/03/14 04:15:00;;;;;;;3.88;2.67;;;9.40;99.90;;;;;;5031989;28;20108;-84
2022/03/14 04:17:26;;;;;;;3.47;3.05;;;9.40;99.90;;;;;;5033892;28;20068;-84
2022/03/14 04:19:57;;;;;;;2.70;2.50;;;9.30;99.90;;;;;;5032277;28;20056;-84
2022/03/14 04:22:22;;;;;;;3.40;2.38;;;9.30;99.90;;;;;;5032561;28;20037;-84
2022/03/14 04:24:48;;;;;;;5.70;2.38;;;9.20;99.90;;;;;;5032013;28;20561;-84
2022/03/14 04:27:14;;;;;;;2.72;2.50;;;9.30;99.90;;;;;;5032250;28;20053;-84
2022/03/14 04:29:40;;;;;;;4.22;2.20;;;9.50;99.90;;;;;;5031974;28;20068;-84
2022/03/14 04:32:06;;;;;;;2.88;2.58;;;9.30;99.90;;;;;;5032145;28;20026;-84
2022/03/14 04:34:32;;;;;;;2.88;2.40;;;9.30;99.90;;;;;;5032583;28;20033;-84
2022/03/14 04:36:58;;;;;;;2.65;2.40;;;9.70;99.90;;;;;;5031755;28;20083;-84
2022/03/14 04:39:24;;;;;;;2.72;2.53;;;9.40;99.90;;;;;;5032378;28;20029;-84
2022/03/14 04:41:51;;;;;;;3.20;2.90;;;9.10;99.90;;;;;;5031962;28;20033;-84
2022/03/14 04:44:17;;;;;;;3.03;2.70;;;9.20;99.90;;;;;;5032036;28;20040;-84
2022/03/14 04:46:43;;;;;;;3.55;3.00;;;9.40;99.90;;;;;;5032308;28;20382;-84
2022/03/14 04:49:08;;;;;;;3.22;2.92;;;9.10;99.90;;;;;;5031738;28;20029;-83
2022/03/14 04:51:36;;;;;;;4.07;3.10;;;9.30;99.90;;;;;;5031828;28;20453;-84
2022/03/14 04:54:02;;;;;;;3.05;2.75;;;9.10;99.90;;;;;;5031940;28;20041;-84
2022/03/14 04:56:27;;;;;;;4.05;3.30;;;9.10;99.90;;;;;;5031830;28;20028;-84
2022/03/14 04:58:53;;;;;;;5.07;2.97;;;9.20;99.90;;;;;;5031849;28;20040;-84
2022/03/14 05:01:23;;;;;;;3.20;2.90;;;9.20;99.90;;;;;;5031786;28;20025;-84
2022/03/14 05:03:52;;;;;;;3.80;3.40;;;9.30;99.90;;;;;;5031245;28;20049;-84
2022/03/14 05:06:21;;;;;;;4.55;3.17;;;9.20;99.90;;;;;;5031365;28;20025;-84
2022/03/14 05:08:47;;;;;;;3.95;3.03;;;9.10;99.90;;;;;;5031419;28;20029;-84
2022/03/14 05:11:14;;;;;;;4.43;3.28;;;9.20;99.90;;;;;;5015764;28;20060;-84
2022/03/14 05:13:41;;;;;;;3.55;3.22;;;9.40;99.90;;;;;;5032345;28;20061;-85
2022/03/14 05:16:07;;;;;;;3.72;3.30;;;9.10;99.90;;;;;;5031542;28;20397;-84
2022/03/14 05:18:34;;;;;;;3.65;3.20;;;9.00;99.90;;;;;;5031095;28;20036;-84
2022/03/14 05:20:59;;;;;;;3.53;3.22;;;9.00;99.90;;;;;;5014890;28;20022;-84
2022/03/14 05:23:28;;;;;;;4.35;3.28;;;9.20;99.90;;;;;;5031100;28;20053;-84
2022/03/14 05:25:54;;;;;;;4.63;3.22;;;9.30;99.90;;;;;;5031922;28;20832;-84
2022/03/14 05:28:19;;;;;;;3.80;3.40;;;9.10;99.90;;;;;;5031968;28;20029;-84
2022/03/14 05:30:45;;;;;;;3.63;3.22;;;8.80;99.90;;;;;;5014446;28;20033;-85
2022/03/14 05:33:10;;;;;;;4.00;3.60;;;8.70;99.90;;;;;;5031031;28;20029;-84
2022/03/14 05:35:36;;;;;;;3.28;2.88;;;8.80;99.90;;;;;;5030886;28;20026;-84
2022/03/14 05:38:02;;;;;;;3.65;3.28;;;8.50;99.90;;;;;;5030947;28;20040;-84
2022/03/14 05:40:27;;;;;;;4.35;3.40;;;8.50;99.90;;;;;;5030694;28;20033;-84
2022/03/14 05:42:53;;;;;;;3.40;3.10;;;8.50;99.90;;;;;;5030236;28;20044;-85
2022/03/14 05:45:20;;;;;;;3.85;3.10;;;8.40;99.90;;;;;;5031489;28;20025;-84
2022/03/14 05:47:46;;;;;;;3.30;3.00;;;8.60;99.90;;;;;;5030547;28;20029;-84
2022/03/14 05:50:12;;;;;;;3.15;2.85;;;8.70;99.90;;;;;;5030878;28;20559;-85
2022/03/14 05:52:38;;;;;;;3.67;3.13;;;8.70;99.90;;;;;;5031069;28;20057;-84
2022/03/14 05:55:05;;;;;;;3.17;2.80;;;8.60;99.90;;;;;;5030804;28;20100;-84
2022/03/14 05:57:32;;;;;;;3.10;2.80;;;8.40;99.90;;;;;;5030529;28;20552;-84
2022/03/14 05:59:58;;;;;;;3.45;3.15;;;8.80;99.90;;;;;;5030915;28;20129;-84
2022/03/14 06:02:24;;;;;;;4.63;3.55;;;8.30;99.90;;;;;;5030768;28;20529;-84
2022/03/14 06:04:52;;;;;;;3.67;3.33;;;8.60;99.90;;;;;;5030861;28;20520;-84
2022/03/14 06:07:22;;;;;;;6.03;5.38;;;8.30;99.90;;;;;;5030357;28;20030;-84
2022/03/14 06:09:50;;;;;;;6.93;6.22;;;8.20;99.90;;;;;;5030979;28;20120;-85
2022/03/14 06:12:27;;;;;;;5.53;5.03;;;8.40;99.90;;;;;;5031176;28;20036;-83
2022/03/14 06:14:58;;;;;;;4.57;4.10;;;8.20;99.90;;;;;;5030484;28;20081;-85
2022/03/14 06:17:24;;;;;;;4.35;3.92;;;8.60;99.90;;;;;;5030730;28;20400;-87
2022/03/14 06:19:50;;;;;;;4.43;3.95;;;8.30;99.90;;;;;;5031256;28;20028;-87
2022/03/14 06:22:17;;;;;;;4.43;3.85;;;8.40;99.90;;;;;;5031038;28;20072;-88
2022/03/14 06:24:44;;;;;;;4.65;3.55;;;8.50;99.90;;;;;;5030407;28;20026;-85
2022/03/14 06:27:10;;;;;;;4.40;3.67;;;8.40;99.90;;;;;;5030550;28;20559;-88
2022/03/14 06:29:35;;;;;;;4.00;3.35;;;8.70;99.90;;;;;;5030122;28;20037;-86
2022/03/14 06:32:01;;;;;;;4.10;3.70;;;8.70;99.90;;;;;;5030983;28;20093;-87
2022/03/14 06:34:27;;;;;;;5.22;3.63;;;8.60;99.90;;;;;;5030904;28;20068;-87
2022/03/14 06:36:52;;;;;;;4.07;3.17;;;8.70;99.90;;;;;;5030924;28;20025;-83
2022/03/14 06:39:18;;;;;;;4.10;3.70;;;8.90;99.90;;;;;;5029786;28;20060;-86
2022/03/14 06:41:44;;;;;;;4.13;3.40;;;8.80;99.90;;;;;;5030752;28;20029;-86
2022/03/14 06:44:11;;;;;;;3.78;3.35;;;8.80;99.90;;;;;;5029895;28;20112;-86
2022/03/14 06:46:36;;;;;;;3.92;3.53;;;8.80;99.90;;;;;;5030808;28;20163;-86
2022/03/14 06:49:03;;;;;;;3.95;3.55;;;9.20;99.90;;;;;;5030651;28;20503;-85
2022/03/14 06:51:28;;;;;;;7.35;3.88;;;8.90;99.90;;;;;;5031497;28;20563;-85
2022/03/14 06:53:54;;;;;;;4.60;3.80;;;9.00;99.90;;;;;;5033603;28;20056;-85
2022/03/14 06:56:21;;;;;;;4.30;3.72;;;9.10;99.90;;;;;;5033866;28;20083;-85
2022/03/14 06:58:46;;;;;;;4.15;3.70;;;9.30;99.90;;;;;;5015989;28;20134;-84
2022/03/14 07:01:12;;;;;;;5.70;4.22;;;9.00;99.90;;;;;;5034588;28;20490;-85
2022/03/14 07:03:38;;;;;;;4.65;4.10;;;8.90;99.90;;;;;;5033954;28;20062;-85
2022/03/14 07:06:04;;;;;;;4.35;3.95;;;9.00;99.90;;;;;;5033711;28;20029;-85
2022/03/14 07:08:30;;;;;;;4.20;3.80;;;9.00;99.90;;;;;;5033669;28;20030;-85
2022/03/14 07:10:55;;;;;;;4.63;4.07;;;9.50;99.90;;;;;;5016063;28;20033;-85
2022/03/14 07:13:21;;;;;;;5.05;3.95;;;9.20;99.90;;;;;;5033420;28;20073;-84
2022/03/14 07:15:47;;;;;;;4.30;3.88;;;9.60;99.90;;;;;;5033798;28;20048;-85
2022/03/14 07:18:12;;;;;;;5.88;4.90;;;10.00;99.90;;;;;;5033363;28;20022;-84
2022/03/14 07:20:39;;;;;;;6.70;5.97;;;9.50;99.90;;;;;;5034234;28;20476;-85
2022/03/14 07:23:06;;;;;;;5.22;4.53;;;9.90;99.90;;;;;;5033047;28;20068;-84
2022/03/14 07:25:35;;;;;;;5.25;4.68;;;9.70;99.90;;;;;;5016888;28;20022;-85
2022/03/14 07:28:04;;;;;;;5.05;4.20;;;9.90;99.90;;;;;;5032830;28;20075;-85
2022/03/14 07:30:30;;;;;;;4.50;4.10;;;9.70;99.90;;;;;;5033469;28;20021;-85
2022/03/14 07:32:55;;;;;;;6.05;3.95;;;9.90;99.90;;;;;;5028639;28;20033;-94
2022/03/14 07:35:22;;;;;;;4.85;4.05;;;10.20;99.90;;;;;;5031837;28;20070;-94
2022/03/14 07:37:49;;;;;;;6.63;3.88;;;10.50;99.90;;;;;;5035125;28;20025;-94
2022/03/14 07:40:15;;;;;;;4.15;3.72;;;10.80;99.90;;;;;;5019683;28;20028;-93
2022/03/14 07:42:49;;;;;;;4.50;3.90;;;10.90;99.90;;;;;;5034299;28;20034;-93
2022/03/14 07:45:18;;;;;;;4.93;4.38;;;11.10;99.90;;;;;;5018070;28;20029;-94
2022/03/14 07:47:44;;;;;;;4.72;3.90;;;11.10;99.90;;;;;;5033897;28;20026;-94
2022/03/14 07:50:13;;;;;;;5.43;4.80;;;11.20;99.90;;;;;;5017430;28;20028;-92
2022/03/14 07:52:39;;;;;;;6.65;3.92;;;11.60;99.90;;;;;;5035278;28;20089;-93
2022/03/14 07:55:07;;;;;;;4.40;4.00;;;11.30;99.90;;;;;;5034054;28;20060;-93
2022/03/14 07:57:33;;;;;;;4.30;3.90;;;11.40;99.90;;;;;;5033858;28;20025;-92
2022/03/14 07:59:59;;;;;;;5.60;4.43;;;11.50;99.90;;;;;;5034258;28;20026;-94
2022/03/14 08:02:26;;;;;;;6.93;3.97;;;11.60;99.90;;;;;;5017638;28;20036;-84
2022/03/14 08:04:51;;;;;;;4.65;3.92;;;11.50;99.90;;;;;;5034327;28;20489;-94
2022/03/14 08:07:20;;;;;;;5.70;3.95;;;11.70;99.90;;;;;;5032095;28;20063;-94
2022/03/14 08:09:48;;;;;;;4.35;3.63;;;11.60;99.90;;;;;;5034297;28;20104;-89
2022/03/14 08:12:17;;;;;;;4.50;3.53;;;11.50;99.90;;;;;;5033032;28;20412;-79
2022/03/14 08:14:43;;;;;;;3.47;3.17;;;11.40;99.90;;;;;;5032685;28;20021;-88
2022/03/14 08:17:09;;;;;;;5.18;3.97;;;11.60;99.90;;;;;;5032939;28;20029;-88
2022/03/14 08:19:34;;;;;;;5.13;3.90;;;11.70;99.90;;;;;;5016963;28;20030;-87
2022/03/14 08:22:01;;;;;;;5.40;3.97;;;11.90;99.90;;;;;;5032422;28;20064;-86
2022/03/14 08:24:27;;;;;;;4.65;3.28;;;12.00;99.90;;;;;;5032305;28;20033;-86
2022/03/14 08:26:53;;;;;;;6.00;4.13;;;12.00;99.90;;;;;;5031724;28;20032;-86
2022/03/14 08:29:19;;;;;;;4.65;3.72;;;12.10;99.90;;;;;;5032256;28;20037;-86
2022/03/14 08:31:44;;;;;;;3.92;3.50;;;12.10;99.90;;;;;;5033313;28;20040;-88
2022/03/14 08:34:11;;;;;;;4.40;3.38;;;12.50;99.90;;;;;;5032942;28;20052;-88
2022/03/14 08:36:40;;;;;;;4.47;3.60;;;12.60;99.90;;;;;;5032031;28;20120;-86
2022/03/14 08:39:07;;;;;;;3.90;3.60;;;12.70;99.90;;;;;;5032146;28;20030;-87
2022/03/14 08:41:36;;;;;;;4.47;3.85;;;12.70;99.90;;;;;;5016323;28;20021;-86
2022/03/14 08:44:09;;;;;;;4.35;3.40;;;12.60;99.90;;;;;;5032068;28;20495;-86
2022/03/14 08:46:35;;;;;;;4.80;4.30;;;12.70;99.90;;;;;;5032434;28;20022;-87
2022/03/14 08:49:01;;;;;;;4.85;3.95;;;12.80;99.90;;;;;;5032005;28;20041;-86
2022/03/14 08:51:27;;;;;;;4.55;3.90;;;12.80;99.90;;;;;;5032060;28;20406;-88
2022/03/14 08:53:54;;;;;;;6.25;4.00;;;12.80;99.90;;;;;;5031861;28;20033;-87
2022/03/14 08:56:20;;;;;;;7.90;5.15;;;13.00;99.90;;;;;;5031992;28;20021;-86
2022/03/14 08:58:46;;;;;;;6.38;4.85;;;12.90;99.90;;;;;;5031792;28;20029;-86
2022/03/14 09:01:12;;;;;;;4.82;4.00;;;13.00;99.90;;;;;;5031574;28;20160;-85
2022/03/14 09:03:38;;;;;;;4.18;3.45;;;13.10;99.90;;;;;;5031298;28;20017;-86
2022/03/14 09:06:04;;;;;;;5.63;3.38;;;13.80;99.90;;;;;;5031971;28;20052;-85
2022/03/14 09:08:31;;;;;;;4.38;3.80;;;14.80;99.90;;;;;;5031652;28;20512;-86
2022/03/14 09:11:00;;;;;;;7.25;3.65;;;15.00;99.90;;;;;;5031320;28;20539;-85
2022/03/14 09:13:26;;;;;;;7.65;3.40;;;15.30;99.90;;;;;;5012216;28;20120;-86
2022/03/14 09:15:51;;;;;;;4.47;4.07;;;15.40;99.90;;;;;;5030502;28;20509;-84
2022/03/14 09:18:17;;;;;;;6.00;4.30;;;15.20;99.90;;;;;;5031266;28;20459;-83
2022/03/14 09:20:44;;;;;;;4.50;3.80;;;15.20;99.90;;;;;;5031373;28;20110;-84
2022/03/14 09:23:10;;;;;;;4.90;3.80;;;15.60;99.90;;;;;;5031306;28;20048;-85
2022/03/14 09:25:36;;;;;;;4.32;3.90;;;16.20;99.90;;;;;;5030907;28;20033;-85
2022/03/14 09:28:03;;;;;;;5.13;3.55;;;17.00;99.90;;;;;;5031004;28;20033;-85
2022/03/14 09:30:28;;;;;;;6.10;3.65;;;16.90;99.90;;;;;;5031296;28;20060;-85
2022/03/14 09:32:54;;;;;;;3.97;3.28;;;17.00;99.90;;;;;;5031947;28;20485;-85
2022/03/14 09:35:23;;;;;;;3.92;3.53;;;16.70;99.90;;;;;;5030796;28;20053;-85
2022/03/14 09:37:49;;;;;;;4.15;3.80;;;16.70;99.90;;;;;;5031070;28;20125;-84
2022/03/14 09:40:17;;;;;;;5.15;4.65;;;17.10;99.90;;;;;;5030729;28;20037;-85
2022/03/14 09:42:45;;;;;;;4.38;3.90;;;17.60;31.90;;;;;;5030715;28;20028;-85
2022/03/14 09:45:14;;;;;;;5.93;4.15;;;17.30;1.00;;;;;;5031131;28;20021;-85
2022/03/14 09:47:45;;;;;;;4.43;4.03;;;17.80;1.00;;;;;;5031806;28;20041;-80
2022/03/14 09:50:27;;;;;;;3.85;3.55;;;18.60;1.00;;;;;;5030461;28;20075;-80
2022/03/14 09:52:55;;;;;;;4.13;3.83;;;19.20;1.00;;;;;;5026926;28;20124;-82
2022/03/14 09:55:21;;;;;;;4.18;3.80;;;18.80;1.00;;;;;;5031086;28;20101;-82
2022/03/14 09:57:48;;;;;;;4.47;4.07;;;19.00;1.00;;;;;;5031083;28;20025;-81
2022/03/14 10:00:14;;;;;;;3.50;3.20;;;19.20;1.00;;;;;;5030632;28;20072;-82
2022/03/14 10:02:41;;;;;;;3.53;2.60;;;19.40;1.00;;;;;;5030506;28;20432;-82
2022/03/14 10:05:08;;;;;;;4.50;3.30;;;19.20;1.00;;;;;;5030929;28;20056;-88
2022/03/14 10:07:35;;;;;;;3.55;2.58;;;19.20;1.00;;;;;;5032215;28;20029;-87
2022/03/14 10:10:02;;;;;;;4.65;2.55;;;19.00;1.00;;;;;;5030706;28;20417;-85
2022/03/14 10:12:28;;;;;;;3.08;2.83;;;19.20;1.00;;;;;;5030738;28;20033;-85
2022/03/14 10:14:53;;;;;;;2.92;2.70;;;19.00;1.00;;;;;;5030695;28;20040;-86
2022/03/14 10:17:19;;;;;;;3.25;2.95;;;19.10;1.00;;;;;;5031224;28;20025;-87
2022/03/14 10:19:57;;;;;;;3.35;3.05;;;19.40;1.00;;;;;;5031793;28;20032;-87
2022/03/14 10:22:23;;;;;;;3.30;2.53;;;19.20;1.00;;;;;;5030795;28;20065;-88
2022/03/14 10:24:54;;;;;;;3.05;2.70;;;19.90;1.00;;;;;;5030925;28;20104;-87
2022/03/14 10:27:21;;;;;;;2.80;2.55;;;20.70;1.00;;;;;;5033665;28;20038;-87
2022/03/14 10:29:49;;;;;;;3.33;3.00;;;20.70;1.00;;;;;;5034744;28;20025;-84
2022/03/14 10:32:31;;;;;;;4.90;2.75;;;21.40;1.00;;;;;;5018925;28;20026;-86
2022/03/14 10:35:03;;;;;;;2.97;2.67;;;22.00;1.00;;;;;;5032753;28;20302;-87
2022/03/14 10:37:29;;;;;;;3.00;2.70;;;22.90;1.00;;;;;;5033153;28;20489;-85
2022/03/14 10:39:59;;;;;;;3.15;2.85;;;24.40;1.00;;;;;;5033817;28;20440;-84
2022/03/14 10:42:26;;;;;;;3.42;2.80;;;24.40;1.00;;;;;;5034127;28;20494;-85
2022/03/14 10:44:53;;;;;;;3.35;2.42;;;24.50;1.00;;;;;;5034764;28;20025;-86
2022/03/14 10:47:23;;;;;;;2.75;2.55;;;25.80;1.00;;;;;;5034404;28;20405;-87
2022/03/14 10:49:49;;;;;;;3.05;2.60;;;25.60;1.00;;;;;;5034915;28;20026;-87
2022/03/14 10:52:18;;;;;;;4.03;2.50;;;25.50;1.00;;;;;;5034711;28;20113;-87
2022/03/14 10:54:44;;;;;;;3.10;2.83;;;24.90;1.00;;;;;;5034951;28;20033;-86
2022/03/14 10:57:11;;;;;;;2.97;2.78;;;23.60;1.00;;;;;;5033760;28;20075;-87
2022/03/14 10:59:45;;;;;;;2.80;2.60;;;23.40;1.00;;;;;;5034152;28;20493;-82
2022/03/14 11:02:14;;;;;;;2.83;2.63;;;22.50;1.00;;;;;;5033830;28;20021;-83
2022/03/14 11:04:54;;;;;;;3.47;2.50;;;22.40;1.00;;;;;;5034063;28;20045;-83
2022/03/14 11:07:24;;;;;;;2.75;2.55;;;23.60;1.00;;;;;;5032944;28;20601;-82
2022/03/14 11:09:51;;;;;;;3.63;2.90;;;24.10;1.00;;;;;;5033107;28;20040;-82
2022/03/14 11:12:19;;;;;;;2.65;2.45;;;25.00;1.00;;;;;;5034246;28;20022;-82
2022/03/14 11:15:02;;;;;;;2.80;2.60;;;26.10;1.00;;;;;;5033591;28;20413;-84
2022/03/14 11:17:32;;;;;;;2.65;2.30;;;26.40;1.00;;;;;;5019185;28;20108;-85
2022/03/14 11:19:59;;;;;;;3.08;2.70;;;26.40;1.00;;;;;;5016071;28;20454;-84
2022/03/14 11:22:27;;;;;;;2.80;2.60;;;26.10;1.00;;;;;;5033687;28;20452;-83
2022/03/14 11:24:55;;;;;;;3.05;2.85;;;26.30;1.00;;;;;;5033496;28;20108;-86
2022/03/14 11:27:41;;;;;;;3.20;2.90;;;26.50;1.00;;;;;;5033093;28;20029;-85
2022/03/14 11:30:09;;;;;;;2.63;2.30;;;26.30;1.00;;;;;;5016903;28;20128;-84
2022/03/14 11:32:37;;;;;;;2.65;2.45;;;24.50;1.00;;;;;;5033178;28;20067;-85
2022/03/14 11:35:03;;;;;;;2.60;2.40;;;24.20;1.00;;;;;;5032587;28;20553;-83
2022/03/14 11:37:31;;;;;;;3.20;3.00;;;23.50;1.00;;;;;;5032998;28;20112;-84
2022/03/14 11:39:58;;;;;;;3.58;3.00;;;23.20;1.00;;;;;;5034390;28;20404;-83
2022/03/14 11:42:24;;;;;;;4.72;3.13;;;23.10;1.00;;;;;;5032952;28;20100;-86
2022/03/14 11:44:51;;;;;;;3.10;2.80;;;23.00;1.00;;;;;;5032934;28;20069;-83
2022/03/14 11:47:20;;;;;;;2.90;2.70;;;22.50;1.00;;;;;;5033554;28;20049;-84
2022/03/14 11:49:46;;;;;;;3.55;2.97;;;22.70;1.00;;;;;;5033212;28;20037;-84
2022/03/14 11:52:12;;;;;;;3.92;2.83;;;22.00;1.00;;;;;;5032141;28;20029;-84
2022/03/14 11:54:45;;;;;;;3.88;2.88;;;22.10;1.00;;;;;;5032494;28;20037;-85
2022/03/14 11:57:11;;;;;;;2.65;2.40;;;21.70;1.00;;;;;;5033955;28;20048;-85
2022/03/14 11:59:37;;;;;;;2.45;2.20;;;21.70;1.00;;;;;;5033189;28;20513;-85
2022/03/14 12:02:06;;;;;;;3.17;2.85;;;21.10;1.00;;;;;;5032227;28;20462;-83
2022/03/14 12:04:34;;;;;;;3.13;2.67;;;20.40;1.00;;;;;;5032388;28;20025;-84
2022/03/14 12:07:06;;;;;;;3.05;2.20;;;20.20;1.00;;;;;;5032301;28;20025;-86
2022/03/14 12:09:33;;;;;;;2.60;2.03;;;19.70;1.00;;;;;;5027516;28;20097;-86
2022/03/14 12:12:27;;;;;;;3.05;2.47;;;19.50;1.00;;;;;;5005995;28;20489;-87
2022/03/14 12:14:56;;;;;;;2.30;2.10;;;19.20;1.00;;;;;;5032448;28;20536;-85
2022/03/14 12:17:24;;;;;;;3.15;2.92;;;18.90;1.00;;;;;;5032060;28;20026;-84
2022/03/14 12:19:54;;;;;;;2.60;2.40;;;19.20;1.00;;;;;;5032899;28;20022;-83
2022/03/14 12:22:25;;;;;;;3.35;3.05;;;19.40;1.00;;;;;;5032205;28;20045;-85
2022/03/14 12:24:51;;;;;;;2.85;2.53;;;19.10;1.00;;;;;;5032381;28;20026;-86
2022/03/14 12:27:33;;;;;;;4.90;2.88;;;18.80;1.00;;;;;;5032538;28;20405;-84
2022/03/14 12:30:04;;;;;;;2.22;2.08;;;19.10;1.00;;;;;;5032330;28;20029;-84
2022/03/14 12:32:38;;;;;;;2.80;1.95;;;19.20;1.00;;;;;;5032406;28;20117;-84
2022/03/14 12:35:09;;;;;;;2.30;2.10;;;19.20;1.00;;;;;;5032404;28;20033;-83
2022/03/14 12:37:37;;;;;;;1.92;1.80;;;19.00;1.00;;;;;;5032012;28;20014;-83
2022/03/14 12:40:05;;;;;;;2.35;2.15;;;19.10;1.00;;;;;;5032508;28;20044;-84
2022/03/14 12:42:39;;;;;;;2.70;1.95;;;19.30;1.00;;;;;;5031924;28;20029;-83
2022/03/14 12:45:24;;;;;;;1.58;1.48;;;19.40;1.00;;;;;;5032204;28;20018;-84
2022/03/14 12:48:05;;;;;;;1.70;1.60;;;19.30;1.00;;;;;;5031698;28;20037;-84
2022/03/14 12:50:43;;;;;;;1.65;1.55;;;19.50;1.00;;;;;;5032113;28;20017;-84
2022/03/14 12:53:12;;;;;;;1.35;1.25;;;19.40;1.00;;;;;;5031244;28;20461;-84